Time;durP1;ratioP1;P1;durP2;ratioP2;P2;SDS_P1;SDS_P2;PMS_P1;PMS_P2;Temp;Humidity;BMP_temperature;BMP_pressure;BME280_temperature;BME280_humidity;BME280_pressure;Samples;Min_cycle;Max_cycle;Signal;HPM_P1;HPM_P2
2022/06/14 00:00:57;;;;;;;0.50;0.40;;;15.10;99.90;;;;;;5055820;28;20963;-80
2022/06/14 00:03:27;;;;;;;3.63;0.60;;;15.10;99.90;;;;;;5056078;28;20441;-81
2022/06/14 00:05:54;;;;;;;1.10;0.87;;;15.00;99.90;;;;;;5055997;28;20442;-80
2022/06/14 00:08:25;;;;;;;1.17;1.13;;;14.90;99.90;;;;;;5056174;28;20454;-81
2022/06/14 00:10:53;;;;;;;1.00;0.70;;;14.80;99.90;;;;;;5055878;28;20906;-81
2022/06/14 00:13:20;;;;;;;0.77;0.40;;;14.80;99.90;;;;;;5055794;28;20829;-81
2022/06/14 00:15:48;;;;;;;1.17;0.63;;;14.80;99.90;;;;;;5055516;28;20963;-81
2022/06/14 00:18:15;;;;;;;1.33;0.60;;;14.70;99.90;;;;;;5055752;28;20477;-81
2022/06/14 00:20:43;;;;;;;0.43;0.43;;;14.70;99.90;;;;;;5055473;28;20445;-81
2022/06/14 00:23:10;;;;;;;1.70;0.53;;;14.60;99.90;;;;;;5055964;28;20442;-81
2022/06/14 00:25:40;;;;;;;0.40;0.40;;;14.60;99.90;;;;;;5055262;28;20838;-80
2022/06/14 00:28:08;;;;;;;0.90;0.50;;;14.50;99.90;;;;;;5055405;28;20485;-81
2022/06/14 00:30:36;;;;;;;1.43;0.50;;;14.40;99.90;;;;;;5055129;28;20486;-81
2022/06/14 00:33:05;;;;;;;0.63;0.60;;;14.40;99.90;;;;;;5055508;28;20450;-81
2022/06/14 00:35:31;;;;;;;0.70;0.70;;;14.40;99.90;;;;;;5055350;28;20470;-81
2022/06/14 00:38:00;;;;;;;0.50;0.50;;;14.30;99.90;;;;;;5055404;28;20448;-81
2022/06/14 00:40:29;;;;;;;1.70;1.07;;;14.30;99.90;;;;;;5055320;28;20449;-81
2022/06/14 00:42:56;;;;;;;2.87;0.80;;;14.20;99.90;;;;;;5055293;28;20453;-81
2022/06/14 00:46:00;;;;;;;1.10;0.53;;;14.20;99.90;;;;;;5055234;28;20473;-81
2022/06/14 00:48:30;;;;;;;0.50;0.40;;;14.20;99.90;;;;;;5054797;28;20446;-81
2022/06/14 00:51:02;;;;;;;1.47;0.60;;;14.10;99.90;;;;;;5055094;28;20488;-81
2022/06/14 00:53:35;;;;;;;0.40;0.40;;;14.10;99.90;;;;;;5055100;28;20434;-80
2022/06/14 00:56:05;;;;;;;0.50;0.50;;;14.00;99.90;;;;;;5055103;28;20442;-81
2022/06/14 00:58:37;;;;;;;1.13;0.80;;;14.00;99.90;;;;;;5055055;28;20444;-81
2022/06/14 01:01:07;;;;;;;1.60;0.60;;;14.00;99.90;;;;;;5055093;28;20434;-80
2022/06/14 01:03:40;;;;;;;0.93;0.80;;;13.90;99.90;;;;;;5054886;28;20442;-80
2022/06/14 01:06:12;;;;;;;1.40;0.70;;;13.90;99.90;;;;;;5054938;28;20438;-81
2022/06/14 01:08:44;;;;;;;0.43;0.40;;;13.90;99.90;;;;;;5055571;28;20886;-81
2022/06/14 01:11:15;;;;;;;0.80;0.70;;;13.90;99.90;;;;;;5054708;28;20465;-81
2022/06/14 01:13:42;;;;;;;0.40;0.40;;;13.80;99.90;;;;;;5054930;28;20473;-81
2022/06/14 01:16:11;;;;;;;0.50;0.50;;;13.80;99.90;;;;;;5054665;28;20525;-81
2022/06/14 01:18:40;;;;;;;1.37;0.50;;;13.80;99.90;;;;;;5054623;28;20472;-81
2022/06/14 01:21:07;;;;;;;0.50;0.50;;;13.80;99.90;;;;;;5054551;28;20445;-81
2022/06/14 01:23:36;;;;;;;0.40;0.40;;;13.80;99.90;;;;;;5054436;28;20450;-80
2022/06/14 01:26:10;;;;;;;0.70;0.50;;;13.80;99.90;;;;;;5054044;28;20442;-80
2022/06/14 01:28:38;;;;;;;0.70;0.70;;;13.70;99.90;;;;;;5054552;28;20783;-81
2022/06/14 01:31:06;;;;;;;0.50;0.50;;;13.70;99.90;;;;;;5054006;28;20871;-80
2022/06/14 01:33:38;;;;;;;1.47;0.50;;;13.70;99.90;;;;;;5054240;28;20446;-80
2022/06/14 01:36:11;;;;;;;1.63;0.60;;;13.70;99.90;;;;;;5054320;28;20442;-80
2022/06/14 01:38:42;;;;;;;1.10;1.10;;;13.70;99.90;;;;;;5054511;28;20438;-80
2022/06/14 01:41:16;;;;;;;0.50;0.50;;;13.70;99.90;;;;;;5054259;28;20411;-80
2022/06/14 01:43:59;;;;;;;0.80;0.60;;;13.60;99.90;;;;;;5054035;28;20466;-81
2022/06/14 01:46:28;;;;;;;0.40;0.30;;;13.60;99.90;;;;;;5053827;28;20910;-81
2022/06/14 01:52:02;;;;;;;1.40;1.30;;;13.50;99.90;;;;;;5053610;28;20462;-80
2022/06/14 01:54:39;;;;;;;0.70;0.70;;;13.50;99.90;;;;;;5053943;28;20477;-80
2022/06/14 01:57:12;;;;;;;0.63;0.63;;;13.50;99.90;;;;;;5053974;28;20441;-80
2022/06/14 01:59:46;;;;;;;0.50;0.50;;;13.50;99.90;;;;;;5053196;28;20426;-81
2022/06/14 02:02:21;;;;;;;1.47;0.67;;;13.40;99.90;;;;;;5053898;28;20483;-81
2022/06/14 02:04:56;;;;;;;0.57;0.57;;;13.40;99.90;;;;;;5053780;28;20465;-80
2022/06/14 02:07:38;;;;;;;1.10;0.63;;;13.40;99.90;;;;;;5054359;28;20504;-81
2022/06/14 02:10:11;;;;;;;1.53;0.50;;;13.40;99.90;;;;;;5053607;28;20492;-80
2022/06/14 02:12:46;;;;;;;2.20;0.60;;;13.40;99.90;;;;;;5053395;28;20438;-80
2022/06/14 02:15:23;;;;;;;0.63;0.60;;;13.40;99.90;;;;;;5053611;28;20469;-81
2022/06/14 02:17:59;;;;;;;0.60;0.60;;;13.40;99.90;;;;;;5053632;28;20839;-80
2022/06/14 02:20:32;;;;;;;4.23;1.13;;;13.40;99.90;;;;;;5053911;28;20414;-81
2022/06/14 02:23:04;;;;;;;0.53;0.47;;;13.40;99.90;;;;;;5053563;28;20430;-81
2022/06/14 02:25:37;;;;;;;1.77;0.60;;;13.30;99.90;;;;;;5053642;28;20466;-81
2022/06/14 02:28:08;;;;;;;0.50;0.50;;;13.30;99.90;;;;;;5053088;28;20489;-81
2022/06/14 02:30:39;;;;;;;0.40;0.40;;;13.30;99.90;;;;;;5053336;28;20489;-80
2022/06/14 02:33:11;;;;;;;5.37;0.90;;;13.30;99.90;;;;;;5053144;28;20414;-81
2022/06/14 02:35:51;;;;;;;0.60;0.60;;;13.30;99.90;;;;;;5053271;28;20512;-81
2022/06/14 02:38:24;;;;;;;0.63;0.63;;;13.30;99.90;;;;;;5053384;28;20429;-81
2022/06/14 02:40:56;;;;;;;0.90;0.90;;;13.30;99.90;;;;;;5053306;28;20436;-81
2022/06/14 02:43:28;;;;;;;1.53;0.40;;;13.20;99.90;;;;;;5053012;28;20413;-81
2022/06/14 02:45:58;;;;;;;0.63;0.63;;;13.20;99.90;;;;;;5053342;28;20774;-81
2022/06/14 02:48:30;;;;;;;2.90;0.60;;;13.20;99.90;;;;;;5053248;28;20430;-81
2022/06/14 02:51:01;;;;;;;0.60;0.60;;;13.20;99.90;;;;;;5053470;28;20457;-80
2022/06/14 02:53:34;;;;;;;0.60;0.60;;;13.10;99.90;;;;;;5053193;28;20430;-80
2022/06/14 02:56:08;;;;;;;1.60;0.80;;;13.10;99.90;;;;;;5052964;28;20430;-80
2022/06/14 02:58:43;;;;;;;0.70;0.70;;;13.10;99.90;;;;;;5052932;28;20416;-81
2022/06/14 03:01:16;;;;;;;0.57;0.50;;;13.10;99.90;;;;;;5052881;28;20932;-80
2022/06/14 03:03:49;;;;;;;1.00;1.00;;;13.00;99.90;;;;;;5052732;28;20472;-80
2022/06/14 03:06:25;;;;;;;1.07;0.97;;;13.00;99.90;;;;;;5053081;28;20434;-81
2022/06/14 03:08:57;;;;;;;0.40;0.40;;;12.90;99.90;;;;;;5053032;28;20501;-81
2022/06/14 03:11:39;;;;;;;1.13;0.60;;;12.90;99.90;;;;;;5054356;28;20470;-80
2022/06/14 03:14:16;;;;;;;1.80;1.70;;;12.90;99.90;;;;;;5056953;28;20474;-80
2022/06/14 03:16:54;;;;;;;1.10;1.00;;;12.90;99.90;;;;;;5057778;28;20440;-81
2022/06/14 03:19:26;;;;;;;0.60;0.60;;;12.90;99.90;;;;;;5056932;28;20430;-80
2022/06/14 03:21:57;;;;;;;0.60;0.50;;;12.80;99.90;;;;;;5056887;28;20479;-80
2022/06/14 03:24:33;;;;;;;0.67;0.67;;;12.70;99.90;;;;;;5056514;28;20980;-80
2022/06/14 03:27:07;;;;;;;3.57;1.17;;;12.70;99.90;;;;;;5056433;28;20822;-80
2022/06/14 03:29:42;;;;;;;0.63;0.60;;;12.60;99.90;;;;;;5057179;28;20841;-80
2022/06/14 03:32:16;;;;;;;0.50;0.50;;;12.60;99.90;;;;;;5056727;28;20410;-81
2022/06/14 03:34:48;;;;;;;0.50;0.40;;;12.70;99.90;;;;;;5056560;28;20829;-80
2022/06/14 03:37:15;;;;;;;0.87;0.40;;;12.60;99.90;;;;;;5056598;28;20448;-81
2022/06/14 03:39:46;;;;;;;1.90;1.60;;;12.60;99.90;;;;;;5056484;28;20453;-81
2022/06/14 03:42:15;;;;;;;0.50;0.50;;;12.60;99.90;;;;;;5056957;28;20924;-80
2022/06/14 03:44:43;;;;;;;0.50;0.47;;;12.60;99.90;;;;;;5056048;28;20931;-80
2022/06/14 03:47:17;;;;;;;0.70;0.70;;;12.70;99.90;;;;;;5056086;28;20453;-80
2022/06/14 03:49:48;;;;;;;0.83;0.67;;;12.60;99.90;;;;;;5056345;28;20421;-80
2022/06/14 03:52:28;;;;;;;0.73;0.73;;;12.60;99.90;;;;;;5056310;28;20430;-80
2022/06/14 03:55:02;;;;;;;0.50;0.50;;;12.60;99.90;;;;;;5056156;28;20473;-80
2022/06/14 03:57:41;;;;;;;0.93;0.50;;;12.70;99.90;;;;;;5056258;28;20425;-81
2022/06/14 04:00:18;;;;;;;0.83;0.70;;;12.70;99.90;;;;;;5056465;28;20436;-81
2022/06/14 04:03:06;;;;;;;4.30;0.80;;;12.70;99.90;;;;;;5056084;28;20426;-81
2022/06/14 04:05:49;;;;;;;3.47;0.77;;;12.80;99.90;;;;;;5056001;28;20465;-80
2022/06/14 04:08:24;;;;;;;0.60;0.60;;;12.90;99.90;;;;;;5056284;28;20430;-81
2022/06/14 04:10:59;;;;;;;0.60;0.50;;;12.90;99.90;;;;;;5055964;28;20468;-81
2022/06/14 04:13:42;;;;;;;1.00;1.00;;;13.00;99.90;;;;;;5055860;28;20432;-80
2022/06/14 04:16:18;;;;;;;1.20;1.10;;;13.00;99.90;;;;;;5055860;28;20438;-80
2022/06/14 04:18:51;;;;;;;1.17;0.53;;;13.10;99.90;;;;;;5055772;28;20430;-81
2022/06/14 04:21:31;;;;;;;1.30;0.80;;;13.10;99.90;;;;;;5055487;28;20431;-80
2022/06/14 04:24:04;;;;;;;0.50;0.50;;;13.20;99.90;;;;;;5054877;28;20557;-80
2022/06/14 04:26:39;;;;;;;0.87;0.87;;;13.20;99.90;;;;;;5055211;28;20988;-80
2022/06/14 04:29:15;;;;;;;1.07;0.57;;;13.30;99.90;;;;;;5055319;28;20434;-80
2022/06/14 04:31:46;;;;;;;0.50;0.50;;;13.30;99.90;;;;;;5055295;28;20453;-80
2022/06/14 04:34:18;;;;;;;6.53;0.80;;;13.40;99.90;;;;;;5055402;28;20972;-80
2022/06/14 04:36:54;;;;;;;0.50;0.40;;;13.40;99.90;;;;;;5055161;28;20859;-80
2022/06/14 04:39:26;;;;;;;0.57;0.50;;;13.60;99.90;;;;;;5055813;28;20446;-80
2022/06/14 04:41:57;;;;;;;1.83;1.50;;;13.60;99.90;;;;;;5055433;28;20423;-80
2022/06/14 04:44:32;;;;;;;0.60;0.50;;;13.60;99.90;;;;;;5055260;28;20476;-80
2022/06/14 04:47:04;;;;;;;1.67;1.13;;;13.60;99.90;;;;;;5055287;28;20439;-80
2022/06/14 04:49:35;;;;;;;1.27;0.80;;;13.60;99.90;;;;;;5055285;28;20431;-80
2022/06/14 04:52:10;;;;;;;2.03;0.57;;;13.60;99.90;;;;;;5055141;28;20461;-80
2022/06/14 04:54:41;;;;;;;1.57;0.80;;;13.80;99.90;;;;;;5055074;28;20480;-80
2022/06/14 04:57:14;;;;;;;1.20;1.10;;;13.80;99.90;;;;;;5054807;28;20910;-80
2022/06/14 04:59:45;;;;;;;8.00;0.60;;;13.80;99.90;;;;;;5054772;28;20901;-80
2022/06/14 05:02:16;;;;;;;0.73;0.60;;;13.90;99.90;;;;;;5055087;28;20448;-80
2022/06/14 05:04:46;;;;;;;0.83;0.83;;;14.00;99.90;;;;;;5054911;28;20474;-80
2022/06/14 05:07:19;;;;;;;1.17;0.80;;;14.00;99.90;;;;;;5054962;28;20457;-80
2022/06/14 05:09:52;;;;;;;0.50;0.40;;;14.10;99.90;;;;;;5054843;28;20434;-80
2022/06/14 05:12:24;;;;;;;0.90;0.90;;;14.10;99.90;;;;;;5054776;28;20833;-80
2022/06/14 05:14:56;;;;;;;1.33;0.77;;;14.20;99.90;;;;;;5054659;28;20473;-80
2022/06/14 05:17:31;;;;;;;0.90;0.60;;;14.30;99.90;;;;;;5054741;28;20406;-80
2022/06/14 05:20:02;;;;;;;0.80;0.80;;;14.30;99.90;;;;;;5054365;28;20449;-80
2022/06/14 05:22:35;;;;;;;0.80;0.60;;;14.40;99.90;;;;;;5055097;28;20460;-80
2022/06/14 05:25:04;;;;;;;0.60;0.60;;;14.40;99.90;;;;;;5054411;28;20461;-80
2022/06/14 05:27:43;;;;;;;0.50;0.50;;;14.50;99.90;;;;;;5054068;28;20486;-80
2022/06/14 05:30:22;;;;;;;0.87;0.80;;;14.60;99.90;;;;;;5054229;28;20411;-80
2022/06/14 05:32:55;;;;;;;0.57;0.50;;;14.70;99.90;;;;;;5054642;28;20452;-80
2022/06/14 05:35:30;;;;;;;1.30;0.60;;;14.80;99.90;;;;;;5053267;28;20466;-79
2022/06/14 05:38:03;;;;;;;2.60;0.80;;;14.90;99.90;;;;;;5054338;28;20436;-80
2022/06/14 05:40:36;;;;;;;1.63;0.60;;;15.00;99.90;;;;;;5054298;28;20437;-80
2022/06/14 05:43:08;;;;;;;1.80;0.97;;;15.10;99.90;;;;;;5054250;28;20442;-80
2022/06/14 05:45:42;;;;;;;0.70;0.70;;;15.20;99.90;;;;;;5054007;28;20835;-80
2022/06/14 05:48:11;;;;;;;1.17;0.90;;;15.30;99.90;;;;;;5054169;28;20434;-80
2022/06/14 05:50:42;;;;;;;1.90;0.93;;;15.40;99.90;;;;;;5053745;28;20441;-80
2022/06/14 05:53:15;;;;;;;7.00;1.00;;;15.50;99.90;;;;;;5053955;28;20898;-80
2022/06/14 05:55:48;;;;;;;1.50;0.73;;;15.70;99.90;;;;;;5053930;28;20469;-80
2022/06/14 05:58:19;;;;;;;3.90;1.07;;;15.90;99.90;;;;;;5053972;28;20410;-80
2022/06/14 06:00:53;;;;;;;0.80;0.80;;;16.00;99.90;;;;;;5053899;28;20437;-80
2022/06/14 06:03:27;;;;;;;1.00;0.90;;;16.20;99.90;;;;;;5053824;28;20434;-80
2022/06/14 06:06:00;;;;;;;0.90;0.80;;;16.30;99.90;;;;;;5053690;28;20959;-80
2022/06/14 06:08:34;;;;;;;0.70;0.70;;;16.60;99.90;;;;;;5053759;28;20928;-80
2022/06/14 06:11:06;;;;;;;1.27;0.97;;;16.90;99.90;;;;;;5053675;28;20473;-80
2022/06/14 06:13:37;;;;;;;1.57;0.90;;;17.20;99.90;;;;;;5053627;28;20441;-80
2022/06/14 06:16:09;;;;;;;1.33;0.80;;;17.50;99.90;;;;;;5053684;28;20437;-80
2022/06/14 06:18:41;;;;;;;1.60;1.10;;;17.80;99.90;;;;;;5053622;28;20430;-80
2022/06/14 06:21:20;;;;;;;10.10;1.10;;;18.20;99.90;;;;;;5053643;28;20421;-80
2022/06/14 06:23:52;;;;;;;1.50;1.27;;;18.50;99.90;;;;;;5053463;28;20469;-80
2022/06/14 06:26:22;;;;;;;1.50;1.40;;;19.10;99.90;;;;;;5053051;28;20846;-81
2022/06/14 06:28:55;;;;;;;1.03;0.90;;;19.60;99.90;;;;;;5053767;28;20441;-81
2022/06/14 06:31:27;;;;;;;1.23;1.07;;;20.10;99.90;;;;;;5053689;28;20211;-81
2022/06/14 06:33:56;;;;;;;0.75;0.73;;;20.50;99.90;;;;;;5053094;28;20717;-81
2022/06/14 06:36:37;;;;;;;1.75;1.15;;;20.80;99.90;;;;;;5053126;28;20205;-81
2022/06/14 06:39:33;;;;;;;1.00;1.00;;;21.30;99.90;;;;;;5053060;28;20187;-81
2022/06/14 06:42:05;;;;;;;2.17;1.08;;;21.50;99.90;;;;;;5053115;28;20191;-81
2022/06/14 06:44:39;;;;;;;7.47;1.20;;;21.80;99.90;;;;;;5053282;28;20223;-81
2022/06/14 06:47:13;;;;;;;1.88;1.30;;;21.90;99.90;;;;;;5052800;28;20233;-82
2022/06/14 06:49:52;;;;;;;2.20;1.48;;;21.90;99.90;;;;;;5053107;28;20194;-82
2022/06/14 06:52:24;;;;;;;1.13;1.02;;;22.10;99.90;;;;;;5053186;28;20222;-81
2022/06/14 06:54:56;;;;;;;1.60;0.88;;;22.10;99.90;;;;;;5053454;28;20222;-82
2022/06/14 06:57:27;;;;;;;2.22;0.95;;;22.20;99.30;;;;;;5053203;28;20191;-82
2022/06/14 06:59:56;;;;;;;1.50;1.10;;;22.20;99.60;;;;;;5053193;28;20202;-82
2022/06/14 07:02:29;;;;;;;1.23;1.08;;;22.30;97.90;;;;;;5053091;28;20206;-82
2022/06/14 07:05:07;;;;;;;0.90;0.80;;;22.30;97.70;;;;;;5053082;28;20226;-82
2022/06/14 07:07:42;;;;;;;1.15;0.85;;;22.30;97.00;;;;;;5053125;28;20190;-82
2022/06/14 07:10:18;;;;;;;3.40;0.95;;;22.30;97.00;;;;;;5053661;28;20191;-82
2022/06/14 07:12:48;;;;;;;1.37;1.00;;;22.20;96.60;;;;;;5053020;28;20211;-82
2022/06/14 07:15:19;;;;;;;1.47;1.00;;;21.90;97.10;;;;;;5052940;28;20233;-82
2022/06/14 07:17:54;;;;;;;1.77;0.80;;;21.70;97.80;;;;;;5052997;28;20191;-82
2022/06/14 07:20:34;;;;;;;0.93;0.90;;;21.70;97.70;;;;;;5053063;28;20194;-84
2022/06/14 07:23:10;;;;;;;1.07;0.80;;;21.70;99.20;;;;;;5053669;28;20532;-84
2022/06/14 07:25:44;;;;;;;1.57;0.90;;;21.70;98.60;;;;;;5052750;28;20230;-84
2022/06/14 07:28:18;;;;;;;1.97;0.87;;;21.90;98.40;;;;;;5052580;28;20840;-84
2022/06/14 07:30:49;;;;;;;1.50;1.03;;;22.00;98.20;;;;;;5052959;28;20190;-84
2022/06/14 07:33:18;;;;;;;2.22;0.90;;;22.20;97.80;;;;;;5052512;28;20227;-84
2022/06/14 07:35:50;;;;;;;1.10;1.02;;;22.60;97.00;;;;;;5052830;28;20210;-84
2022/06/14 07:38:25;;;;;;;1.70;0.98;;;22.90;96.70;;;;;;5052529;28;20191;-84
2022/06/14 07:40:59;;;;;;;0.90;0.90;;;23.50;95.10;;;;;;5052852;28;20187;-85
2022/06/14 07:43:31;;;;;;;2.15;0.95;;;24.00;93.70;;;;;;5052785;28;20191;-84
2022/06/14 07:46:02;;;;;;;1.05;0.95;;;24.20;92.90;;;;;;5052454;28;20653;-85
2022/06/14 07:48:38;;;;;;;4.32;1.10;;;24.60;92.40;;;;;;5052764;28;20198;-83
2022/06/14 07:51:10;;;;;;;1.83;0.70;;;24.80;90.60;;;;;;5052415;28;20190;-85
2022/06/14 07:53:43;;;;;;;2.35;1.30;;;25.40;88.90;;;;;;5052656;28;20183;-84
2022/06/14 07:56:13;;;;;;;1.90;1.13;;;26.00;87.50;;;;;;5052355;28;20555;-84
2022/06/14 07:58:45;;;;;;;0.93;0.93;;;26.40;85.10;;;;;;5054278;28;20198;-85
2022/06/14 08:01:17;;;;;;;1.10;1.00;;;26.70;82.80;;;;;;5056198;28;20194;-85
2022/06/14 08:03:50;;;;;;;1.10;1.00;;;26.80;81.10;;;;;;5056105;28;20226;-85
2022/06/14 08:06:21;;;;;;;1.75;1.00;;;26.70;79.50;;;;;;5056132;28;20191;-84
2022/06/14 08:08:55;;;;;;;0.77;0.77;;;27.00;76.40;;;;;;5055803;28;20179;-84
2022/06/14 08:11:28;;;;;;;1.48;1.38;;;27.10;70.50;;;;;;5056037;28;20191;-85
2022/06/14 08:13:59;;;;;;;1.02;1.02;;;27.20;72.00;;;;;;5055893;28;20234;-82
2022/06/14 08:16:28;;;;;;;0.75;0.75;;;27.40;72.50;;;;;;5055868;28;20191;-83
2022/06/14 08:19:01;;;;;;;1.75;1.65;;;27.70;70.00;;;;;;5055721;28;20203;-81
2022/06/14 08:21:33;;;;;;;0.70;0.70;;;28.30;67.50;;;;;;5055778;28;20539;-82
2022/06/14 08:24:05;;;;;;;2.05;1.45;;;28.40;67.60;;;;;;5055372;28;20588;-82
2022/06/14 08:26:37;;;;;;;1.10;1.10;;;28.60;65.00;;;;;;5055595;28;20239;-82
2022/06/14 08:29:10;;;;;;;2.35;1.23;;;28.80;65.90;;;;;;5055357;28;20673;-81
2022/06/14 08:31:42;;;;;;;1.75;0.90;;;29.30;61.00;;;;;;5056072;28;20425;-82
2022/06/14 08:34:16;;;;;;;0.82;0.80;;;29.00;61.90;;;;;;5055129;28;20671;-82
2022/06/14 08:36:50;;;;;;;1.08;0.70;;;28.40;60.70;;;;;;5055543;28;20195;-82
2022/06/14 08:39:23;;;;;;;1.83;1.45;;;28.20;60.20;;;;;;5055442;28;20213;-82
2022/06/14 08:42:06;;;;;;;1.13;1.02;;;28.10;60.40;;;;;;5055203;28;20190;-82
2022/06/14 08:44:39;;;;;;;2.35;1.17;;;28.00;61.50;;;;;;5055332;28;20219;-82
2022/06/14 08:47:35;;;;;;;1.13;1.10;;;28.00;62.20;;;;;;5055122;28;20239;-81
2022/06/14 08:50:16;;;;;;;1.10;1.10;;;28.70;59.80;;;;;;5054975;28;20657;-82
2022/06/14 08:53:00;;;;;;;2.35;0.85;;;29.30;59.20;;;;;;5054983;28;20205;-82
2022/06/14 08:56:00;;;;;;;0.70;0.70;;;29.60;58.30;;;;;;5055094;28;20757;-82
2022/06/14 08:58:43;;;;;;;1.10;0.80;;;29.50;58.40;;;;;;5055116;28;20195;-82
2022/06/14 09:01:19;;;;;;;1.33;1.20;;;29.00;57.70;;;;;;5055049;28;20188;-81
2022/06/14 09:04:19;;;;;;;1.30;1.10;;;28.60;57.80;;;;;;5054618;28;20229;-82
2022/06/14 09:07:24;;;;;;;0.70;0.70;;;28.10;56.30;;;;;;5054816;28;20212;-82
2022/06/14 09:10:25;;;;;;;0.95;0.75;;;27.20;57.60;;;;;;5054542;28;20200;-82
2022/06/14 09:13:43;;;;;;;0.82;0.82;;;26.70;59.10;;;;;;5054790;28;20206;-82
2022/06/14 09:16:52;;;;;;;0.88;0.88;;;26.10;59.20;;;;;;5013062;28;20191;-82
2022/06/14 09:19:27;;;;;;;1.10;1.00;;;25.90;60.10;;;;;;5034535;28;20202;-82
2022/06/14 09:22:09;;;;;;;0.90;0.90;;;26.20;61.60;;;;;;5054717;28;20187;-82
2022/06/14 09:24:53;;;;;;;0.60;0.60;;;26.30;58.50;;;;;;5054500;28;20225;-82
2022/06/14 09:27:47;;;;;;;2.30;0.98;;;26.50;57.40;;;;;;5054320;28;20612;-81
2022/06/14 09:30:49;;;;;;;0.70;0.70;;;26.50;58.00;;;;;;5053917;28;20609;-81
2022/06/14 09:33:40;;;;;;;2.35;0.75;;;26.50;58.40;;;;;;5036931;28;20272;-81
2022/06/14 09:36:40;;;;;;;1.60;0.70;;;26.30;58.90;;;;;;5054348;28;20193;-81
2022/06/14 09:39:45;;;;;;;1.02;1.02;;;25.90;60.10;;;;;;5054063;28;20175;-81
2022/06/14 09:42:43;;;;;;;1.33;0.90;;;25.70;60.60;;;;;;5047409;28;20203;-82
2022/06/14 09:45:35;;;;;;;1.02;0.70;;;25.60;60.30;;;;;;5054169;28;20223;-81
2022/06/14 09:48:32;;;;;;;0.70;0.70;;;25.50;58.00;;;;;;5054146;28;20190;-81
2022/06/14 09:51:40;;;;;;;0.93;0.70;;;25.40;57.90;;;;;;5053828;28;20191;-81
2022/06/14 09:54:43;;;;;;;0.65;0.65;;;25.10;58.60;;;;;;5053889;28;20211;-81
2022/06/14 09:57:23;;;;;;;0.70;0.70;;;25.10;59.60;;;;;;5054001;28;20187;-80
2022/06/14 10:00:21;;;;;;;0.80;0.80;;;25.10;59.90;;;;;;5053976;28;20234;-80
2022/06/14 10:03:12;;;;;;;0.80;0.80;;;25.00;59.20;;;;;;5050439;28;20732;-81
2022/06/14 10:05:51;;;;;;;1.30;0.80;;;24.80;59.80;;;;;;5053852;28;20222;-87
2022/06/14 10:08:37;;;;;;;0.50;0.50;;;24.70;63.60;;;;;;5053828;28;20245;-80
2022/06/14 10:11:29;;;;;;;0.75;0.60;;;24.60;60.30;;;;;;5053554;28;20183;-81
2022/06/14 10:14:21;;;;;;;0.75;0.75;;;24.60;59.50;;;;;;5053268;28;20223;-81
2022/06/14 10:17:11;;;;;;;2.03;0.88;;;24.50;58.90;;;;;;5053376;28;20562;-81
2022/06/14 10:20:03;;;;;;;0.68;0.68;;;24.30;59.30;;;;;;5044535;28;20560;-81
2022/06/14 10:22:38;;;;;;;0.77;0.70;;;24.40;61.40;;;;;;5053072;28;20202;-81
2022/06/14 10:25:11;;;;;;;3.60;0.98;;;24.60;62.50;;;;;;5053497;28;20218;-81
2022/06/14 10:30:47;;;;;;;0.70;0.70;;;24.80;59.30;;;;;;5053768;28;20181;-81
2022/06/14 10:33:34;;;;;;;2.25;0.65;;;24.80;60.70;;;;;;5053416;28;20214;-81
2022/06/14 10:36:23;;;;;;;0.70;0.70;;;24.70;58.40;;;;;;5053392;28;20198;-80
2022/06/14 10:39:28;;;;;;;0.55;0.55;;;24.80;56.90;;;;;;5053061;28;20666;-81
2022/06/14 10:42:01;;;;;;;1.45;0.90;;;24.70;57.20;;;;;;5028739;28;20213;-82
2022/06/14 10:44:39;;;;;;;0.93;0.80;;;24.70;59.20;;;;;;5052995;28;20234;-82
2022/06/14 10:47:18;;;;;;;2.88;1.00;;;24.80;58.50;;;;;;5053287;28;20631;-82
2022/06/14 10:50:22;;;;;;;0.80;0.60;;;24.90;59.60;;;;;;5053321;28;20189;-82
2022/06/14 10:53:09;;;;;;;1.40;1.05;;;24.90;60.00;;;;;;5052931;28;20567;-82
2022/06/14 10:55:49;;;;;;;0.90;0.88;;;25.20;59.50;;;;;;5053184;28;20222;-83
2022/06/14 10:58:48;;;;;;;1.00;0.70;;;25.60;59.00;;;;;;5053248;28;20182;-82
2022/06/14 11:01:26;;;;;;;1.45;0.70;;;26.30;57.60;;;;;;5053208;28;20191;-83
2022/06/14 11:04:03;;;;;;;2.22;1.08;;;26.60;55.90;;;;;;5053282;28;20227;-82
2022/06/14 11:07:00;;;;;;;0.60;0.60;;;26.90;54.40;;;;;;5053170;28;20190;-84
2022/06/14 11:09:37;;;;;;;1.23;0.73;;;26.90;53.20;;;;;;5053852;28;20194;-84
2022/06/14 11:12:23;;;;;;;0.70;0.70;;;26.60;55.40;;;;;;5053092;28;20203;-84
2022/06/14 11:15:02;;;;;;;0.68;0.68;;;26.30;53.80;;;;;;5053012;28;20222;-83
2022/06/14 11:17:49;;;;;;;0.68;0.68;;;26.00;54.70;;;;;;5053108;28;20195;-83
2022/06/14 11:20:32;;;;;;;0.70;0.70;;;25.70;56.10;;;;;;5053080;28;20187;-82
2022/06/14 11:23:07;;;;;;;0.90;0.80;;;25.70;55.80;;;;;;5052725;28;20179;-83
2022/06/14 11:25:40;;;;;;;0.63;0.63;;;25.50;55.40;;;;;;5053036;28;20240;-83
2022/06/14 11:28:20;;;;;;;1.70;0.70;;;25.40;56.60;;;;;;5052577;28;20592;-83
2022/06/14 11:30:53;;;;;;;1.13;0.90;;;25.30;57.10;;;;;;5052679;28;20195;-83
2022/06/14 11:33:34;;;;;;;0.80;0.70;;;25.40;57.30;;;;;;5055580;28;20662;-83
2022/06/14 11:36:24;;;;;;;0.60;0.60;;;25.40;56.30;;;;;;5056711;28;20195;-83
2022/06/14 11:39:13;;;;;;;1.13;0.63;;;25.30;58.00;;;;;;5056670;28;20230;-84
2022/06/14 11:41:43;;;;;;;0.90;0.90;;;25.10;56.90;;;;;;5056296;28;20654;-83
2022/06/14 11:44:24;;;;;;;0.70;0.70;;;25.10;57.10;;;;;;5056738;28;20222;-83
2022/06/14 11:46:59;;;;;;;2.67;1.40;;;24.90;56.60;;;;;;5056509;28;20190;-83
2022/06/14 11:49:35;;;;;;;0.68;0.60;;;24.70;57.60;;;;;;5056235;28;20179;-82
2022/06/14 11:52:18;;;;;;;0.50;0.50;;;24.80;55.60;;;;;;5056385;28;20186;-82
2022/06/14 11:54:54;;;;;;;1.23;0.80;;;24.60;56.60;;;;;;5055962;28;20645;-82
2022/06/14 11:57:29;;;;;;;0.50;0.50;;;24.50;55.20;;;;;;5056319;28;20193;-83
2022/06/14 12:00:19;;;;;;;0.60;0.60;;;24.40;55.40;;;;;;5056258;28;20191;-83
2022/06/14 12:02:59;;;;;;;0.50;0.50;;;24.40;53.40;;;;;;5055871;28;20195;-83
2022/06/14 12:05:39;;;;;;;0.68;0.68;;;24.30;55.10;;;;;;5055869;28;20222;-83
2022/06/14 12:08:19;;;;;;;1.25;0.68;;;24.40;54.80;;;;;;5056115;28;20187;-83
2022/06/14 12:10:51;;;;;;;0.80;0.63;;;24.40;56.70;;;;;;5055832;28;20245;-83
2022/06/14 12:13:43;;;;;;;0.60;0.60;;;24.30;57.30;;;;;;5055961;28;20302;-82
2022/06/14 12:16:14;;;;;;;2.05;0.80;;;24.40;56.40;;;;;;5055686;28;20539;-82
2022/06/14 12:18:56;;;;;;;0.60;0.60;;;24.30;56.50;;;;;;5055542;28;20690;-83
2022/06/14 12:21:29;;;;;;;1.20;1.13;;;24.30;56.30;;;;;;5055530;28;20236;-82
2022/06/14 12:24:02;;;;;;;1.20;0.80;;;24.30;55.50;;;;;;5055472;28;20219;-82
2022/06/14 12:26:36;;;;;;;1.63;0.60;;;24.30;55.70;;;;;;5055492;28;20238;-82
2022/06/14 12:29:10;;;;;;;0.98;0.70;;;24.20;55.90;;;;;;5055660;28;20194;-83
2022/06/14 12:31:49;;;;;;;1.98;0.73;;;24.20;56.00;;;;;;5055707;28;20191;-81
2022/06/14 12:34:24;;;;;;;2.55;0.70;;;24.20;55.60;;;;;;5055195;28;20222;-82
2022/06/14 12:37:03;;;;;;;1.67;0.87;;;24.10;56.00;;;;;;5055573;28;20211;-83
2022/06/14 12:39:36;;;;;;;0.68;0.68;;;24.00;55.00;;;;;;5056019;28;20582;-83
2022/06/14 12:42:07;;;;;;;2.42;0.90;;;23.80;56.30;;;;;;5055689;28;20182;-83
2022/06/14 12:44:45;;;;;;;0.60;0.60;;;23.70;56.50;;;;;;5054448;28;20223;-83
2022/06/14 12:47:16;;;;;;;0.90;0.70;;;23.70;57.10;;;;;;5055389;28;20190;-83
2022/06/14 12:49:48;;;;;;;0.90;0.80;;;23.70;57.10;;;;;;5055366;28;20245;-83
2022/06/14 12:52:19;;;;;;;0.57;0.57;;;23.60;55.70;;;;;;5055241;28;20430;-81
2022/06/14 12:54:58;;;;;;;0.70;0.70;;;23.70;54.50;;;;;;5054984;28;20228;-83
2022/06/14 12:57:36;;;;;;;0.73;0.73;;;23.70;54.40;;;;;;5055194;28;20187;-83
2022/06/14 13:00:20;;;;;;;0.63;0.63;;;23.50;54.10;;;;;;5055193;28;20187;-82
2022/06/14 13:02:54;;;;;;;0.80;0.70;;;23.40;53.90;;;;;;5055135;28;20187;-83
2022/06/14 13:05:24;;;;;;;0.60;0.57;;;23.30;54.70;;;;;;5055031;28;20218;-83
2022/06/14 13:08:05;;;;;;;0.60;0.60;;;23.20;56.00;;;;;;5055469;28;20445;-82
2022/06/14 13:10:46;;;;;;;1.33;0.80;;;23.20;55.90;;;;;;5054983;28;20183;-83
2022/06/14 13:13:45;;;;;;;0.83;0.60;;;23.30;56.70;;;;;;5054888;28;20579;-82
2022/06/14 13:16:23;;;;;;;2.13;0.50;;;23.30;57.20;;;;;;5044260;28;20453;-83
2022/06/14 13:18:59;;;;;;;0.80;0.70;;;23.20;58.20;;;;;;5054768;28;20197;-82
2022/06/14 13:21:36;;;;;;;0.70;0.70;;;23.20;57.10;;;;;;5054899;28;20186;-83
2022/06/14 13:24:16;;;;;;;0.87;0.70;;;23.10;57.40;;;;;;5054626;28;20461;-83
2022/06/14 13:26:57;;;;;;;1.27;0.60;;;23.20;57.40;;;;;;5054350;28;20477;-81
2022/06/14 13:29:34;;;;;;;0.77;0.60;;;23.20;56.50;;;;;;5054596;28;20187;-82
2022/06/14 13:32:34;;;;;;;0.50;0.50;;;23.30;55.00;;;;;;5054220;28;20935;-82
2022/06/14 13:35:15;;;;;;;1.20;0.80;;;23.20;56.00;;;;;;5054335;28;20484;-82
2022/06/14 13:37:48;;;;;;;0.80;0.80;;;23.30;56.60;;;;;;5054173;28;20179;-82
2022/06/14 13:40:22;;;;;;;0.77;0.70;;;23.50;55.90;;;;;;5054087;28;20441;-82
2022/06/14 13:42:57;;;;;;;3.50;1.00;;;23.50;57.60;;;;;;5054070;28;20175;-82